Time;durP1;ratioP1;P1;durP2;ratioP2;P2;SDS_P1;SDS_P2;PMS_P1;PMS_P2;Temp;Humidity;BMP_temperature;BMP_pressure;BME280_temperature;BME280_humidity;BME280_pressure;Samples;Min_cycle;Max_cycle;Signal;HPM_P1;HPM_P2
2023/12/24 00:01:56;;;;;;;10.63;6.47;;;;;;;;;;5032620;28;25073;-69
2023/12/24 00:04:22;;;;;;;16.17;7.15;;;;;;;;;;5031678;28;25122;-70
2023/12/24 00:06:48;;;;;;;10.52;6.68;;;;;;;;;;5034214;28;25122;-69
2023/12/24 00:09:14;;;;;;;13.93;6.93;;;;;;;;;;5035473;28;25055;-69
2023/12/24 00:11:40;;;;;;;14.77;6.00;;;;;;;;;;5034290;28;25107;-73
2023/12/24 00:14:06;;;;;;;17.63;6.57;;;;;;;;;;5034988;28;25058;-70
2023/12/24 00:16:32;;;;;;;14.75;6.55;;;;;;;;;;5030806;28;25063;-69
2023/12/24 00:18:58;;;;;;;15.35;7.15;;;;;;;;;;5030065;28;25140;-70
2023/12/24 00:21:24;;;;;;;14.65;6.93;;;;;;;;;;5027883;28;25088;-69
2023/12/24 00:23:50;;;;;;;14.80;7.43;;;;;;;;;;5035769;28;25059;-70
2023/12/24 00:26:17;;;;;;;14.00;7.80;;;;;;;;;;5035154;28;25079;-69
2023/12/24 00:28:44;;;;;;;16.30;7.47;;;;;;;;;;5027642;28;25052;-70
2023/12/24 00:31:10;;;;;;;14.00;7.47;;;;;;;;;;5033036;28;25046;-70
2023/12/24 00:33:36;;;;;;;14.07;7.43;;;;;;;;;;5032100;28;25127;-68
2023/12/24 00:36:02;;;;;;;11.13;7.45;;;;;;;;;;5034028;28;25062;-70
2023/12/24 00:38:28;;;;;;;18.98;7.70;;;;;;;;;;5027673;28;25112;-69
2023/12/24 00:40:54;;;;;;;11.15;7.78;;;;;;;;;;5026347;28;25094;-70
2023/12/24 00:43:20;;;;;;;14.70;8.23;;;;;;;;;;5028785;28;25052;-71
2023/12/24 00:45:47;;;;;;;20.45;7.57;;;;;;;;;;5031730;28;25075;-70
2023/12/24 00:48:13;;;;;;;19.67;7.50;;;;;;;;;;5031612;28;25051;-70
2023/12/24 00:50:39;;;;;;;13.77;7.30;;;;;;;;;;5033289;28;25067;-69
2023/12/24 00:53:05;;;;;;;20.75;8.02;;;;;;;;;;5030186;28;25161;-70
2023/12/24 00:55:31;;;;;;;15.90;8.38;;;;;;;;;;5031318;28;25087;-69
2023/12/24 00:57:57;;;;;;;22.67;8.40;;;;;;;;;;5028341;28;25066;-69
2023/12/24 01:00:23;;;;;;;24.20;8.88;;;;;;;;;;5029947;28;25082;-69
2023/12/24 01:02:49;;;;;;;23.27;7.57;;;;;;;;;;5027049;28;25055;-70
2023/12/24 01:05:15;;;;;;;24.83;8.60;;;;;;;;;;5021261;28;25092;-70
2023/12/24 01:07:41;;;;;;;21.02;9.32;;;;;;;;;;5028010;28;25083;-68
2023/12/24 01:10:07;;;;;;;19.48;9.50;;;;;;;;;;5028171;28;25102;-71
2023/12/24 01:12:33;;;;;;;20.63;9.73;;;;;;;;;;5028325;28;25061;-70
2023/12/24 01:14:59;;;;;;;22.80;10.10;;;;;;;;;;5032101;28;25064;-68
2023/12/24 01:17:25;;;;;;;22.50;10.55;;;;;;;;;;5029304;28;25061;-68
2023/12/24 01:19:51;;;;;;;21.48;10.00;;;;;;;;;;5029225;28;25070;-69
2023/12/24 01:22:17;;;;;;;23.73;10.80;;;;;;;;;;5031542;28;25156;-69
2023/12/24 01:24:43;;;;;;;25.50;10.85;;;;;;;;;;5031761;28;25128;-70
2023/12/24 01:27:09;;;;;;;28.08;11.55;;;;;;;;;;5033672;28;25075;-70
2023/12/24 01:29:35;;;;;;;30.85;12.25;;;;;;;;;;5027096;28;25094;-71
2023/12/24 01:32:01;;;;;;;24.13;12.25;;;;;;;;;;5032917;28;25056;-69
2023/12/24 01:34:27;;;;;;;19.30;11.60;;;;;;;;;;5032937;28;25066;-71
2023/12/24 01:36:53;;;;;;;39.75;14.32;;;;;;;;;;5031479;28;25078;-71
2023/12/24 01:39:20;;;;;;;30.92;14.63;;;;;;;;;;5033592;28;25045;-68
2023/12/24 01:41:47;;;;;;;27.25;16.27;;;;;;;;;;5032550;28;25085;-70
2023/12/24 01:44:13;;;;;;;28.90;15.32;;;;;;;;;;5032637;28;24959;-70
2023/12/24 01:46:40;;;;;;;33.22;15.40;;;;;;;;;;5033350;28;25079;-72
2023/12/24 01:49:07;;;;;;;41.05;19.55;;;;;;;;;;5029456;28;25056;-71
2023/12/24 01:51:34;;;;;;;31.70;18.25;;;;;;;;;;5029163;28;25066;-71
2023/12/24 01:54:00;;;;;;;33.17;18.75;;;;;;;;;;5032632;28;25095;-71
2023/12/24 01:56:26;;;;;;;33.63;12.73;;;;;;;;;;5023064;28;25077;-71
2023/12/24 01:58:52;;;;;;;26.17;13.27;;;;;;;;;;5032505;28;25092;-69
2023/12/24 02:01:18;;;;;;;30.33;15.30;;;;;;;;;;5030049;28;25151;-70
2023/12/24 02:03:44;;;;;;;26.27;15.77;;;;;;;;;;5029272;28;25071;-71
2023/12/24 02:06:10;;;;;;;32.90;17.67;;;;;;;;;;5029135;28;25065;-72
2023/12/24 02:08:36;;;;;;;33.13;19.80;;;;;;;;;;5034070;28;25058;-70
2023/12/24 02:11:03;;;;;;;31.45;10.02;;;;;;;;;;5032025;28;25078;-70
2023/12/24 02:13:29;;;;;;;27.40;9.70;;;;;;;;;;5028426;28;25074;-69
2023/12/24 02:15:57;;;;;;;25.38;10.60;;;;;;;;;;5033056;28;25149;-70
2023/12/24 02:18:23;;;;;;;34.47;11.57;;;;;;;;;;5029121;28;25046;-70
2023/12/24 02:20:49;;;;;;;27.17;12.18;;;;;;;;;;5032179;28;25054;-70
2023/12/24 02:23:15;;;;;;;23.15;11.25;;;;;;;;;;5023715;28;25061;-70
2023/12/24 02:25:41;;;;;;;25.25;11.70;;;;;;;;;;5031031;28;25078;-70
2023/12/24 02:28:07;;;;;;;29.25;12.02;;;;;;;;;;5028540;28;25094;-70
2023/12/24 02:30:34;;;;;;;16.88;10.73;;;;;;;;;;5027809;28;25141;-72
2023/12/24 02:33:00;;;;;;;22.33;11.07;;;;;;;;;;5031115;28;25146;-72
2023/12/24 02:35:29;;;;;;;18.08;11.70;;;;;;;;;;5030397;28;25135;-70
2023/12/24 02:37:55;;;;;;;20.65;11.32;;;;;;;;;;5028489;28;25167;-70
2023/12/24 02:40:21;;;;;;;14.75;10.90;;;;;;;;;;5029204;28;25068;-71
2023/12/24 02:42:48;;;;;;;21.50;11.07;;;;;;;;;;5026293;28;25073;-70
2023/12/24 02:45:14;;;;;;;21.35;10.48;;;;;;;;;;5029918;28;25056;-69
2023/12/24 02:47:40;;;;;;;13.85;9.35;;;;;;;;;;5028183;28;25108;-69
2023/12/24 02:50:06;;;;;;;16.58;10.07;;;;;;;;;;5024835;28;25059;-70
2023/12/24 02:52:32;;;;;;;9.68;7.80;;;;;;;;;;5029345;28;25154;-71
2023/12/24 02:54:58;;;;;;;14.07;7.35;;;;;;;;;;5026721;28;25105;-70
2023/12/24 02:57:24;;;;;;;11.10;8.10;;;;;;;;;;5028587;28;25062;-71
2023/12/24 02:59:50;;;;;;;11.05;7.03;;;;;;;;;;5030583;28;25068;-71
2023/12/24 03:02:16;;;;;;;16.60;7.88;;;;;;;;;;5031242;28;25065;-71
2023/12/24 03:04:42;;;;;;;7.82;5.45;;;;;;;;;;5031167;28;25077;-72
2023/12/24 03:07:08;;;;;;;9.35;5.72;;;;;;;;;;5032976;28;25072;-71
2023/12/24 03:09:34;;;;;;;14.27;5.68;;;;;;;;;;5032243;28;25169;-71
2023/12/24 03:12:00;;;;;;;11.70;5.03;;;;;;;;;;5028913;28;25072;-71
2023/12/24 03:14:25;;;;;;;7.25;4.10;;;;;;;;;;5029155;28;25111;-71
2023/12/24 03:16:52;;;;;;;10.27;4.85;;;;;;;;;;5031184;28;25177;-71
2023/12/24 03:19:18;;;;;;;15.70;5.25;;;;;;;;;;5030385;28;25081;-71
2023/12/24 03:21:44;;;;;;;12.35;4.75;;;;;;;;;;5031077;28;25074;-71
2023/12/24 03:24:10;;;;;;;10.38;4.78;;;;;;;;;;5030777;28;25071;-71
2023/12/24 03:26:36;;;;;;;10.63;5.10;;;;;;;;;;5027706;28;25078;-71
2023/12/24 03:29:02;;;;;;;12.60;5.65;;;;;;;;;;5031784;28;25139;-71
2023/12/24 03:31:28;;;;;;;11.55;5.70;;;;;;;;;;5029105;28;25071;-70
2023/12/24 03:33:55;;;;;;;17.25;5.93;;;;;;;;;;5027699;28;25128;-72
2023/12/24 03:36:20;;;;;;;14.88;6.18;;;;;;;;;;5031075;28;25154;-72
2023/12/24 03:38:47;;;;;;;17.83;6.20;;;;;;;;;;5033545;28;25066;-73
2023/12/24 03:41:13;;;;;;;15.30;6.25;;;;;;;;;;5026456;28;25061;-70
2023/12/24 03:43:40;;;;;;;19.92;7.57;;;;;;;;;;5031224;28;25090;-73
2023/12/24 03:46:06;;;;;;;22.50;6.30;;;;;;;;;;5030849;28;25064;-71
2023/12/24 03:48:32;;;;;;;20.02;6.75;;;;;;;;;;5031488;28;25164;-69
2023/12/24 03:50:59;;;;;;;18.25;5.68;;;;;;;;;;5028012;28;25071;-72
2023/12/24 03:53:25;;;;;;;20.67;6.15;;;;;;;;;;5029916;28;25062;-72
2023/12/24 03:55:51;;;;;;;22.77;6.45;;;;;;;;;;5031151;28;25082;-71
2023/12/24 03:58:17;;;;;;;16.20;5.45;;;;;;;;;;5034799;28;25169;-71
2023/12/24 04:00:44;;;;;;;18.65;6.72;;;;;;;;;;5033135;28;25124;-72
2023/12/24 04:03:10;;;;;;;20.40;6.55;;;;;;;;;;5035479;28;25061;-70
2023/12/24 04:05:36;;;;;;;17.90;6.75;;;;;;;;;;5033657;28;25092;-71
2023/12/24 04:08:03;;;;;;;22.58;6.43;;;;;;;;;;5035497;28;25077;-72
2023/12/24 04:10:29;;;;;;;21.08;6.63;;;;;;;;;;5036705;28;25070;-72
2023/12/24 04:12:59;;;;;;;26.98;7.80;;;;;;;;;;5033780;28;25144;-73
2023/12/24 04:15:25;;;;;;;24.38;7.22;;;;;;;;;;5029217;28;25168;-72
2023/12/24 04:17:51;;;;;;;25.38;7.25;;;;;;;;;;5030295;28;25066;-69
2023/12/24 04:20:17;;;;;;;24.80;7.05;;;;;;;;;;5031390;28;25092;-72
2023/12/24 04:22:43;;;;;;;24.60;8.02;;;;;;;;;;5026082;28;25116;-70
2023/12/24 04:25:09;;;;;;;24.13;7.80;;;;;;;;;;5032435;28;25153;-70
2023/12/24 04:27:35;;;;;;;27.52;7.32;;;;;;;;;;5031002;28;25149;-69
2023/12/24 04:30:00;;;;;;;24.77;7.70;;;;;;;;;;5028779;28;25157;-71
2023/12/24 04:32:26;;;;;;;20.73;7.82;;;;;;;;;;5032384;28;25099;-70
2023/12/24 04:34:52;;;;;;;30.40;8.20;;;;;;;;;;5030655;28;25090;-70
2023/12/24 04:37:18;;;;;;;29.65;8.90;;;;;;;;;;5031977;28;25102;-70
2023/12/24 04:39:44;;;;;;;29.73;9.52;;;;;;;;;;5031405;28;25066;-70
2023/12/24 04:42:10;;;;;;;33.67;8.90;;;;;;;;;;5030142;28;25062;-73
2023/12/24 04:44:39;;;;;;;25.75;9.70;;;;;;;;;;5031100;28;25066;-71
2023/12/24 04:47:07;;;;;;;39.78;9.95;;;;;;;;;;5033985;28;25100;-71
2023/12/24 04:49:33;;;;;;;33.80;10.13;;;;;;;;;;5026373;28;25070;-72
2023/12/24 04:52:02;;;;;;;42.47;12.20;;;;;;;;;;5031380;28;25081;-71
2023/12/24 04:54:28;;;;;;;47.63;11.85;;;;;;;;;;5032186;28;25069;-72
2023/12/24 04:56:54;;;;;;;47.15;13.23;;;;;;;;;;5025278;28;25148;-71
2023/12/24 04:59:20;;;;;;;44.00;10.93;;;;;;;;;;5028423;28;25146;-71
2023/12/24 05:01:46;;;;;;;45.63;10.77;;;;;;;;;;5030473;28;25062;-72
2023/12/24 05:04:12;;;;;;;38.78;11.50;;;;;;;;;;5034726;28;25081;-72
2023/12/24 05:06:38;;;;;;;39.60;10.98;;;;;;;;;;5036636;28;25063;-71
2023/12/24 05:09:04;;;;;;;36.47;10.60;;;;;;;;;;5034899;28;25060;-72
2023/12/24 05:11:30;;;;;;;45.08;12.07;;;;;;;;;;5028738;28;25123;-72
2023/12/24 05:13:56;;;;;;;40.25;10.00;;;;;;;;;;5028187;28;25058;-70
2023/12/24 05:16:22;;;;;;;36.08;10.43;;;;;;;;;;5030039;28;25085;-72
2023/12/24 05:18:48;;;;;;;45.33;11.00;;;;;;;;;;5027666;28;25096;-72
2023/12/24 05:21:14;;;;;;;30.25;10.00;;;;;;;;;;5031259;28;25064;-74
2023/12/24 05:23:40;;;;;;;42.55;11.10;;;;;;;;;;5026682;28;25062;-72
2023/12/24 05:26:06;;;;;;;35.78;9.88;;;;;;;;;;5028017;28;25060;-72
2023/12/24 05:28:32;;;;;;;38.55;10.80;;;;;;;;;;5023518;28;25062;-73
2023/12/24 05:30:59;;;;;;;37.88;11.60;;;;;;;;;;5025236;28;25072;-71
2023/12/24 05:33:25;;;;;;;33.88;11.45;;;;;;;;;;5032099;28;25108;-71
2023/12/24 05:35:51;;;;;;;33.53;10.75;;;;;;;;;;5024840;28;25105;-72
2023/12/24 05:38:19;;;;;;;43.75;11.23;;;;;;;;;;5030729;28;25058;-72
2023/12/24 05:40:45;;;;;;;39.05;10.95;;;;;;;;;;5029613;28;25181;-71
2023/12/24 05:43:11;;;;;;;38.67;10.65;;;;;;;;;;5031692;28;25081;-70
2023/12/24 05:45:37;;;;;;;39.50;10.25;;;;;;;;;;5024561;28;25134;-72
2023/12/24 05:48:03;;;;;;;33.25;10.40;;;;;;;;;;5027708;28;25056;-71
2023/12/24 05:50:30;;;;;;;36.78;10.27;;;;;;;;;;5031187;28;25071;-72
2023/12/24 05:52:56;;;;;;;36.85;10.48;;;;;;;;;;5023057;28;25058;-70
2023/12/24 05:55:22;;;;;;;36.92;10.63;;;;;;;;;;5022891;28;25151;-72
2023/12/24 05:57:48;;;;;;;30.30;10.13;;;;;;;;;;5022127;28;25074;-71
2023/12/24 06:00:14;;;;;;;29.95;10.27;;;;;;;;;;5018486;28;25103;-72
2023/12/24 06:02:40;;;;;;;45.75;10.95;;;;;;;;;;5027922;28;25065;-69
2023/12/24 06:05:07;;;;;;;41.65;11.65;;;;;;;;;;5021695;28;25084;-70
2023/12/24 06:07:33;;;;;;;37.63;9.90;;;;;;;;;;5019995;28;25068;-71
2023/12/24 06:09:59;;;;;;;37.97;10.63;;;;;;;;;;5019953;28;25130;-70
2023/12/24 06:12:25;;;;;;;34.70;9.88;;;;;;;;;;5018691;28;25070;-69
2023/12/24 06:14:51;;;;;;;38.00;11.52;;;;;;;;;;5018387;28;25132;-71
2023/12/24 06:17:17;;;;;;;29.80;10.30;;;;;;;;;;5018258;28;25134;-72
2023/12/24 06:19:44;;;;;;;31.75;10.27;;;;;;;;;;5019779;28;25103;-71
2023/12/24 06:22:10;;;;;;;32.63;10.70;;;;;;;;;;5028366;28;25101;-71
2023/12/24 06:24:36;;;;;;;36.28;9.63;;;;;;;;;;5023029;28;25094;-72
2023/12/24 06:27:03;;;;;;;41.40;11.82;;;;;;;;;;5020741;28;25134;-73
2023/12/24 06:29:29;;;;;;;38.17;10.05;;;;;;;;;;5017175;28;25102;-69
2023/12/24 06:31:56;;;;;;;35.85;11.27;;;;;;;;;;5021033;28;24726;-69
2023/12/24 06:34:22;;;;;;;40.00;11.38;;;;;;;;;;5022206;28;25063;-72
2023/12/24 06:36:47;;;;;;;41.65;11.43;;;;;;;;;;5017461;28;25061;-69
2023/12/24 06:39:13;;;;;;;42.47;12.05;;;;;;;;;;5025908;28;25101;-70
2023/12/24 06:41:39;;;;;;;36.17;11.07;;;;;;;;;;5027368;28;25066;-71
2023/12/24 06:44:05;;;;;;;49.60;13.70;;;;;;;;;;5023435;28;25127;-70
2023/12/24 06:46:31;;;;;;;44.47;11.48;;;;;;;;;;5025845;28;25140;-70
2023/12/24 06:48:57;;;;;;;46.75;13.35;;;;;;;;;;5025942;28;25137;-73
2023/12/24 06:51:23;;;;;;;42.15;11.32;;;;;;;;;;5026383;28;25106;-70
2023/12/24 06:53:49;;;;;;;56.00;13.02;;;;;;;;;;5019934;28;25155;-72
2023/12/24 06:56:15;;;;;;;55.17;13.13;;;;;;;;;;5025342;28;25053;-73
2023/12/24 06:58:41;;;;;;;52.55;11.82;;;;;;;;;;5024469;28;25143;-73
2023/12/24 07:01:07;;;;;;;50.03;12.95;;;;;;;;;;5026557;28;25074;-71
2023/12/24 07:03:33;;;;;;;55.53;13.57;;;;;;;;;;5007638;28;25055;-71
2023/12/24 07:05:59;;;;;;;52.35;13.45;;;;;;;;;;5027194;28;25082;-69
2023/12/24 07:08:25;;;;;;;51.95;13.82;;;;;;;;;;5017686;28;25059;-71
2023/12/24 07:10:51;;;;;;;43.83;12.23;;;;;;;;;;5025013;28;25062;-72
2023/12/24 07:13:17;;;;;;;53.13;12.38;;;;;;;;;;5021520;28;25069;-70
2023/12/24 07:15:43;;;;;;;47.60;13.30;;;;;;;;;;5020747;28;25078;-72
2023/12/24 07:18:09;;;;;;;49.90;11.02;;;;;;;;;;5020052;28;25065;-70
2023/12/24 07:20:35;;;;;;;50.67;11.30;;;;;;;;;;5023644;28;25068;-71
2023/12/24 07:23:01;;;;;;;49.17;11.25;;;;;;;;;;5026862;28;25084;-74
2023/12/24 07:25:28;;;;;;;48.00;12.02;;;;;;;;;;5024498;28;25101;-72
2023/12/24 07:27:53;;;;;;;46.55;11.20;;;;;;;;;;5025184;28;25108;-73
2023/12/24 07:30:21;;;;;;;40.70;11.40;;;;;;;;;;5024920;28;25495;-74
2023/12/24 07:32:47;;;;;;;42.95;10.93;;;;;;;;;;5015615;28;25081;-71
2023/12/24 07:35:13;;;;;;;31.55;9.70;;;;;;;;;;5025297;28;25079;-74
2023/12/24 07:37:41;;;;;;;30.98;8.90;;;;;;;;;;5021529;28;25058;-72
2023/12/24 07:40:08;;;;;;;34.83;9.25;;;;;;;;;;5028284;28;25058;-73
2023/12/24 07:42:34;;;;;;;30.20;8.77;;;;;;;;;;5022193;28;25095;-74
2023/12/24 07:45:00;;;;;;;28.13;8.43;;;;;;;;;;5024741;28;25100;-72
2023/12/24 07:47:26;;;;;;;36.28;8.18;;;;;;;;;;5023000;28;25073;-71
2023/12/24 07:49:52;;;;;;;31.98;7.97;;;;;;;;;;5025323;28;25077;-73
2023/12/24 07:52:18;;;;;;;24.23;8.60;;;;;;;;;;5025581;28;25071;-72
2023/12/24 07:54:45;;;;;;;27.65;8.82;;;;;;;;;;5023947;28;25075;-72
2023/12/24 07:57:11;;;;;;;37.15;9.93;;;;;;;;;;5018295;28;25066;-71
2023/12/24 07:59:37;;;;;;;48.65;10.35;;;;;;;;;;5023820;28;25073;-72
2023/12/24 08:02:03;;;;;;;46.95;10.50;;;;;;;;;;5026355;28;25058;-74
2023/12/24 08:04:29;;;;;;;48.95;11.50;;;;;;;;;;5020973;28;25080;-74
2023/12/24 08:06:55;;;;;;;53.92;11.52;;;;;;;;;;5023573;28;25063;-73
2023/12/24 08:09:21;;;;;;;49.33;11.73;;;;;;;;;;5019574;28;25057;-71
2023/12/24 08:11:47;;;;;;;49.63;12.75;;;;;;;;;;5023667;28;25097;-72
2023/12/24 08:14:13;;;;;;;51.92;13.32;;;;;;;;;;5026933;28;25067;-73
2023/12/24 08:16:39;;;;;;;68.55;15.30;;;;;;;;;;5023619;28;25063;-73
2023/12/24 08:19:05;;;;;;;59.45;15.05;;;;;;;;;;5017970;28;25059;-72
2023/12/24 08:21:31;;;;;;;66.65;15.25;;;;;;;;;;5026425;28;25056;-72
2023/12/24 08:23:57;;;;;;;57.15;13.30;;;;;;;;;;5027470;28;25134;-73
2023/12/24 08:26:23;;;;;;;69.57;13.07;;;;;;;;;;5026056;28;25069;-72
2023/12/24 08:28:50;;;;;;;68.35;14.75;;;;;;;;;;5023507;28;25083;-71
2023/12/24 08:31:15;;;;;;;66.85;15.55;;;;;;;;;;5024578;28;25053;-70
2023/12/24 08:33:41;;;;;;;66.28;14.13;;;;;;;;;;5027591;28;25083;-71
2023/12/24 08:36:08;;;;;;;63.92;14.85;;;;;;;;;;5020239;28;25059;-70
2023/12/24 08:38:34;;;;;;;62.78;14.88;;;;;;;;;;5024004;28;25066;-73
2023/12/24 08:41:00;;;;;;;65.80;13.98;;;;;;;;;;5027800;28;25071;-72
2023/12/24 08:43:26;;;;;;;81.45;14.88;;;;;;;;;;5024309;28;25095;-72
2023/12/24 08:45:51;;;;;;;83.68;17.15;;;;;;;;;;5023820;28;25079;-73
2023/12/24 08:48:18;;;;;;;74.85;16.33;;;;;;;;;;5019715;28;25156;-72
2023/12/24 08:50:44;;;;;;;81.55;16.38;;;;;;;;;;5022208;28;25119;-73
2023/12/24 08:53:11;;;;;;;71.75;17.02;;;;;;;;;;5020262;28;25067;-71
2023/12/24 08:55:37;;;;;;;73.00;16.13;;;;;;;;;;5023539;28;25083;-72
2023/12/24 08:58:03;;;;;;;76.05;17.63;;;;;;;;;;5020127;28;25065;-71
2023/12/24 09:00:29;;;;;;;89.28;15.63;;;;;;;;;;5018067;28;25148;-70
2023/12/24 09:02:55;;;;;;;89.97;16.38;;;;;;;;;;5023325;28;25173;-72
2023/12/24 09:05:21;;;;;;;84.28;17.42;;;;;;;;;;5023128;28;25154;-71
2023/12/24 09:07:47;;;;;;;81.82;18.48;;;;;;;;;;5026179;28;25069;-70
2023/12/24 09:10:13;;;;;;;77.95;16.63;;;;;;;;;;5018572;28;25101;-72
2023/12/24 09:12:39;;;;;;;72.50;17.50;;;;;;;;;;5021240;28;25099;-72
2023/12/24 09:15:05;;;;;;;73.22;17.38;;;;;;;;;;5024406;28;25133;-70
2023/12/24 09:17:31;;;;;;;74.50;16.77;;;;;;;;;;5026809;28;25071;-73
2023/12/24 09:19:57;;;;;;;82.30;17.85;;;;;;;;;;5024958;28;25085;-71
2023/12/24 09:22:23;;;;;;;75.45;18.02;;;;;;;;;;5021411;28;25075;-70
2023/12/24 09:24:49;;;;;;;79.65;17.55;;;;;;;;;;5023042;28;25125;-72
2023/12/24 09:27:15;;;;;;;66.40;15.38;;;;;;;;;;5025421;28;25137;-71
2023/12/24 09:29:41;;;;;;;76.55;16.88;;;;;;;;;;5022537;28;25060;-71
2023/12/24 09:32:08;;;;;;;74.10;17.73;;;;;;;;;;5024332;28;25070;-72
2023/12/24 09:34:34;;;;;;;71.95;16.95;;;;;;;;;;5024267;28;25067;-71
2023/12/24 09:37:00;;;;;;;85.85;17.80;;;;;;;;;;5022798;28;25170;-75
2023/12/24 09:39:25;;;;;;;61.25;16.00;;;;;;;;;;5024990;28;25054;-72
2023/12/24 09:41:53;;;;;;;71.57;16.95;;;;;;;;;;5026718;28;25060;-70
2023/12/24 09:44:19;;;;;;;65.25;17.67;;;;;;;;;;5024143;28;25073;-71
2023/12/24 09:46:45;;;;;;;70.78;16.23;;;;;;;;;;5026430;28;25078;-71
2023/12/24 09:49:11;;;;;;;81.15;17.80;;;;;;;;;;5020539;28;25053;-72
2023/12/24 09:51:38;;;;;;;72.80;17.70;;;;;;;;;;5023693;28;25130;-72
2023/12/24 09:54:05;;;;;;;61.47;16.42;;;;;;;;;;5025721;28;25157;-71
2023/12/24 09:56:30;;;;;;;70.82;19.27;;;;;;;;;;5023170;28;25067;-72
2023/12/24 09:58:56;;;;;;;76.88;16.15;;;;;;;;;;5023489;28;25144;-72
2023/12/24 10:01:22;;;;;;;70.97;15.85;;;;;;;;;;5020984;28;25073;-70
2023/12/24 10:03:48;;;;;;;67.57;16.63;;;;;;;;;;5023812;28;25068;-70
2023/12/24 10:06:14;;;;;;;66.32;17.10;;;;;;;;;;5026086;28;25065;-71
2023/12/24 10:08:40;;;;;;;58.45;17.40;;;;;;;;;;5020446;28;25140;-73
2023/12/24 10:11:15;;;;;;;52.13;15.23;;;;;;;;;;5025576;28;25053;-70
2023/12/24 10:13:41;;;;;;;51.70;15.88;;;;;;;;;;5022029;28;25160;-71
2023/12/24 10:16:09;;;;;;;52.08;15.02;;;;;;;;;;5026155;28;25137;-71
2023/12/24 10:18:35;;;;;;;54.83;16.40;;;;;;;;;;5018947;28;25076;-70
2023/12/24 10:21:09;;;;;;;62.88;15.65;;;;;;;;;;5022963;28;25152;-70
2023/12/24 10:23:36;;;;;;;69.45;17.00;;;;;;;;;;5019264;28;25082;-71
2023/12/24 10:26:06;;;;;;;59.80;16.10;;;;;;;;;;5021087;28;25063;-71
2023/12/24 10:28:32;;;;;;;53.70;16.38;;;;;;;;;;5021728;28;25073;-70
2023/12/24 10:31:06;;;;;;;40.22;13.15;;;;;;;;;;5021694;28;25084;-69
2023/12/24 10:33:32;;;;;;;51.08;15.88;;;;;;;;;;5023428;28;25129;-71
2023/12/24 10:35:58;;;;;;;54.50;15.45;;;;;;;;;;5023272;28;25131;-70
2023/12/24 10:38:26;;;;;;;42.25;14.70;;;;;;;;;;5021447;28;25051;-71
2023/12/24 10:40:52;;;;;;;47.15;12.82;;;;;;;;;;5021370;28;25093;-72
2023/12/24 10:43:19;;;;;;;56.65;15.10;;;;;;;;;;5024989;28;25099;-72
2023/12/24 10:45:48;;;;;;;45.40;13.35;;;;;;;;;;5021978;28;25112;-72
2023/12/24 10:48:14;;;;;;;40.63;12.32;;;;;;;;;;5022675;28;25055;-72
2023/12/24 10:50:40;;;;;;;46.20;12.05;;;;;;;;;;5022944;28;25058;-71
2023/12/24 10:53:06;;;;;;;40.42;13.90;;;;;;;;;;5021059;28;25059;-70
2023/12/24 10:55:33;;;;;;;36.25;11.32;;;;;;;;;;5019360;28;25086;-71
2023/12/24 10:58:05;;;;;;;44.63;12.25;;;;;;;;;;5020508;28;25109;-73
2023/12/24 11:00:32;;;;;;;38.05;11.90;;;;;;;;;;5021593;28;25061;-72
2023/12/24 11:02:57;;;;;;;44.78;13.55;;;;;;;;;;5023255;28;25097;-72
2023/12/24 11:05:46;;;;;;;41.53;11.65;;;;;;;;;;5024009;28;25149;-72
2023/12/24 11:08:21;;;;;;;45.53;12.48;;;;;;;;;;5020235;28;25080;-71
2023/12/24 11:10:54;;;;;;;37.42;11.68;;;;;;;;;;5020758;28;25079;-73
2023/12/24 11:13:43;;;;;;;47.28;12.98;;;;;;;;;;5023011;28;25084;-71
2023/12/24 11:16:09;;;;;;;49.22;13.35;;;;;;;;;;5016351;28;25077;-73
2023/12/24 11:18:42;;;;;;;48.05;12.75;;;;;;;;;;5021661;28;25164;-73
2023/12/24 11:21:10;;;;;;;47.50;12.45;;;;;;;;;;5021090;28;25064;-73
2023/12/24 11:23:36;;;;;;;42.33;12.43;;;;;;;;;;5020119;28;25070;-72
2023/12/24 11:26:22;;;;;;;30.65;10.93;;;;;;;;;;5021630;28;25062;-72
2023/12/24 11:28:48;;;;;;;36.17;11.30;;;;;;;;;;5023285;28;25054;-73
2023/12/24 11:31:23;;;;;;;31.05;12.00;;;;;;;;;;5022976;28;25146;-73
2023/12/24 11:33:49;;;;;;;39.15;12.60;;;;;;;;;;5019078;28;25157;-72
2023/12/24 11:36:16;;;;;;;42.88;13.23;;;;;;;;;;5018866;28;25160;-71
2023/12/24 11:38:42;;;;;;;35.17;12.95;;;;;;;;;;5021920;28;25074;-72
2023/12/24 11:41:11;;;;;;;44.08;12.95;;;;;;;;;;5022468;28;25055;-74
2023/12/24 11:43:38;;;;;;;38.65;13.00;;;;;;;;;;5020268;28;25058;-72
2023/12/24 11:46:04;;;;;;;41.25;14.15;;;;;;;;;;5023645;28;25152;-72
2023/12/24 11:48:32;;;;;;;33.83;12.38;;;;;;;;;;5026086;28;25064;-71
2023/12/24 11:51:02;;;;;;;37.80;12.63;;;;;;;;;;5022685;28;25061;-72
2023/12/24 11:53:31;;;;;;;34.55;12.60;;;;;;;;;;5022439;28;25130;-71
2023/12/24 11:56:23;;;;;;;36.05;13.00;;;;;;;;;;5019403;28;25113;-71
2023/12/24 11:58:49;;;;;;;41.28;13.63;;;;;;;;;;5033240;28;25063;-70
2023/12/24 12:01:24;;;;;;;35.78;12.48;;;;;;;;;;5028818;28;25058;-71
2023/12/24 12:03:57;;;;;;;33.67;13.10;;;;;;;;;;5020440;28;25168;-72
2023/12/24 12:06:23;;;;;;;38.50;13.40;;;;;;;;;;5023346;28;25060;-71
2023/12/24 12:08:49;;;;;;;42.38;13.75;;;;;;;;;;5024601;28;25075;-73
2023/12/24 12:11:15;;;;;;;38.70;14.25;;;;;;;;;;5024121;28;25104;-73
2023/12/24 12:13:41;;;;;;;46.15;14.70;;;;;;;;;;5025534;28;25067;-73
2023/12/24 12:16:07;;;;;;;39.85;14.02;;;;;;;;;;5025083;28;25082;-74
2023/12/24 12:18:33;;;;;;;47.25;14.20;;;;;;;;;;5021578;28;25060;-72
2023/12/24 12:20:59;;;;;;;55.83;14.35;;;;;;;;;;5024524;28;25068;-73
2023/12/24 12:23:25;;;;;;;50.60;13.57;;;;;;;;;;5020626;28;25059;-71
2023/12/24 12:25:51;;;;;;;50.58;13.60;;;;;;;;;;5030076;28;25092;-73
2023/12/24 12:28:17;;;;;;;47.40;13.73;;;;;;;;;;5027413;28;25079;-73
2023/12/24 12:30:44;;;;;;;46.88;12.80;;;;;;;;;;5028212;28;25056;-73
2023/12/24 12:33:10;;;;;;;47.60;11.88;;;;;;;;;;5035566;28;25083;-73
2023/12/24 12:35:36;;;;;;;47.38;13.50;;;;;;;;;;5027759;28;25061;-72
2023/12/24 12:38:03;;;;;;;47.50;13.95;;;;;;;;;;5028167;28;25075;-73
2023/12/24 12:40:29;;;;;;;47.83;13.18;;;;;;;;;;5031243;28;25073;-72
2023/12/24 12:42:55;;;;;;;64.60;15.98;;;;;;;;;;5030699;28;25053;-72
2023/12/24 12:45:22;;;;;;;64.85;14.80;;;;;;;;;;5016684;28;25129;-74
2023/12/24 12:47:48;;;;;;;63.08;18.00;;;;;;;;;;5021152;28;25053;-72
2023/12/24 12:50:14;;;;;;;61.85;15.27;;;;;;;;;;5027708;28;25125;-72
2023/12/24 12:52:40;;;;;;;64.13;15.05;;;;;;;;;;5026233;28;25083;-73
2023/12/24 12:55:12;;;;;;;60.40;16.30;;;;;;;;;;5027729;28;25077;-71
2023/12/24 12:57:38;;;;;;;;;;;;;;;;;;5025750;28;25149;-70
2023/12/24 13:00:13;;;;;;;55.85;14.88;;;;;;;;;;5026427;28;24179;-71
2023/12/24 13:02:40;;;;;;;59.40;15.55;;;;;;;;;;5025551;28;25072;-71
2023/12/24 13:05:21;;;;;;;63.20;17.67;;;;;;;;;;5025528;28;25078;-71
2023/12/24 13:07:47;;;;;;;53.42;16.83;;;;;;;;;;5020592;28;25094;-71
2023/12/24 13:10:25;;;;;;;63.05;16.17;;;;;;;;;;5022696;28;25106;-72
2023/12/24 13:13:04;;;;;;;59.47;16.88;;;;;;;;;;5026513;28;25148;-74
2023/12/24 13:15:30;;;;;;;53.17;15.35;;;;;;;;;;5020980;28;25079;-71
2023/12/24 13:18:14;;;;;;;55.08;17.27;;;;;;;;;;5027428;28;25094;-70
2023/12/24 13:20:40;;;;;;;49.53;16.17;;;;;;;;;;5021816;28;25101;-71
2023/12/24 13:23:08;;;;;;;61.70;18.10;;;;;;;;;;5020872;28;25110;-73
2023/12/24 13:25:34;;;;;;;51.58;15.48;;;;;;;;;;5028602;28;25133;-73
2023/12/24 13:28:00;;;;;;;45.75;15.00;;;;;;;;;;5027351;28;25072;-71
2023/12/24 13:30:26;;;;;;;40.45;14.43;;;;;;;;;;5028029;28;25074;-72
2023/12/24 13:32:52;;;;;;;41.65;13.82;;;;;;;;;;5028744;28;25160;-72
2023/12/24 13:35:18;;;;;;;48.40;13.93;;;;;;;;;;5027218;28;25054;-72
2023/12/24 13:37:44;;;;;;;50.88;14.13;;;;;;;;;;5025516;28;25060;-70
2023/12/24 13:40:10;;;;;;;49.58;14.05;;;;;;;;;;5024887;28;25090;-74
2023/12/24 13:42:36;;;;;;;47.13;14.05;;;;;;;;;;5022875;28;25133;-73
2023/12/24 13:45:02;;;;;;;44.83;14.68;;;;;;;;;;5022040;28;25092;-73
2023/12/24 13:47:28;;;;;;;48.38;14.10;;;;;;;;;;5024581;28;25072;-69
2023/12/24 13:49:57;;;;;;;48.28;14.20;;;;;;;;;;5020326;28;25106;-70
2023/12/24 13:52:23;;;;;;;43.17;13.50;;;;;;;;;;5017752;28;25149;-72
2023/12/24 13:54:49;;;;;;;39.75;13.57;;;;;;;;;;5022390;28;25097;-72
2023/12/24 13:57:15;;;;;;;37.20;13.32;;;;;;;;;;5020691;28;25075;-74
2023/12/24 13:59:43;;;;;;;40.53;13.27;;;;;;;;;;5024270;28;25095;-69
2023/12/24 14:02:09;;;;;;;38.17;13.18;;;;;;;;;;5026360;28;25177;-71
2023/12/24 14:04:35;;;;;;;38.67;13.32;;;;;;;;;;5020675;28;25171;-73
2023/12/24 14:07:02;;;;;;;42.67;13.68;;;;;;;;;;5023963;28;25052;-71
2023/12/24 14:09:28;;;;;;;40.10;13.20;;;;;;;;;;5023570;28;25108;-70
2023/12/24 14:11:53;;;;;;;29.17;12.27;;;;;;;;;;5024695;28;25081;-72
2023/12/24 14:14:20;;;;;;;33.78;13.25;;;;;;;;;;5025669;28;25055;-74
2023/12/24 14:16:46;;;;;;;36.35;12.35;;;;;;;;;;5023343;28;25099;-74
2023/12/24 14:19:12;;;;;;;30.25;11.45;;;;;;;;;;5021832;28;25077;-72